Terminal Aerodrome Forecast
Issued by NWS Pendleton, OR

Home | Current Version | Previous Version | Text Only | Print | Product List | Glossary On
Versions: 1 2 3 4 5 6 7 8 9 10 11 12 13 14 15 16 17 18 19 20 21 22 23 24
000
FTUS46 KPDT 141415 AAB
TAFPDT
TAF AMD
KPDT 141415Z 1414/1512 24010KT P6SM -SHRA BKN040 OVC090
     FM141800 25012G20KT 6SM -RA BKN025 OVC040
     FM142100 25013G20KT P6SM -SHRA BKN035 OVC060
     FM150300 25014G22KT 5SM -RA OVC030
     FM150900 24014G22KT P6SM VCSH SCT030 BKN050=

USA.gov is the U.S. government's official web portal to all federal, state and local government web resources and services.